Kelton, PA (19346)

3:23 PM EDT on September 30, 2016 (GMT -0400)
APRSWXNET | | Change Station

Elev 450 ft 39.80 °N, 75.90 °W | Updated 32 minutes ago

Overcast
Overcast
58 °F
Feels Like 58 °F
N
11
Wind Variable Wind from NNE
Gusts 0.0 mph

Today
High -- | Low -- °F
--% Chance of Precip.
Yesterday
High -- | Low -- °F
Precip. -- in
Pressure 30.20 in
Visibility 2.5 miles
Clouds Overcast 400 ft
Dew Point 57 °F
Humidity 96%
Rainfall in
Snow Depth Not available.
6:59 AM 6:46 PM
Waning Crescent, 0% visible
METAR KMQS 301915Z AUTO 06007G17KT 2 1/2SM BR OVC004 15/14 A3020 RMK AO2
Pressure 30.20 in
Visibility 2.5 miles
Clouds Overcast 400 ft
Dew Point 57 °F
Humidity 96%
Rainfall in
Snow Depth Not available.
6:59 AM 6:46 PM
Waning Crescent, 0% visible
METAR KMQS 301915Z AUTO 06007G17KT 2 1/2SM BR OVC004 15/14 A3020 RMK AO2

10-Day Weather Forecast

Almanac

Astronomy

Sep. 30, 2016 Rise Set
Actual Time
Civil Twilight
Nautical Twilight
Astronomical Twilight
Moon
Length of Visible Light
Length of Day
Tomorrow will be .
, % of the Moon is Illuminated

Today's Extremes

State Highs State Lows

Community

WunderPhotos

Upload Photos

1,942,762 photos uploaded!

WunderBlog® & News

Nearby

Air Quality

  Air Quality AQ Index Pollutant
Not available.

Snow Depth

Station Depth Elevation

Earthquake Activity

City Distance Mag. Time & Date
Minimum magnitude displayed is 2.5.

Coastal Water Temperatures

Place Temperature

Stations

Nearby Weather Stations

Station Location Temp. Windchill Dew Point Humidity Wind Precip. Elev Updated Type
                   

Watches & Warnings

There are currently no watches in effect.